<?xml version="1.0" encoding="UTF-8" standalone="no" ?>
<gpx xmlns="http://www.topografix.com/GPX/1/1" xmlns:xsi="http://www.w3.org/2001/XMLSchema-instance" xsi:schemaLocation="http://www.topografix.com/GPX/1/1 http://www.topografix.com/GPX/1/1/gpx.xsd" version="1.1" creator="VisuGPX - https://www.visugpx.com">
  <metadata>
    <name>Puy de jumes Puy coquille et puy des gouttes</name>
  </metadata>
  <trk>
    <name><![CDATA[Puy de jumes Puy coquille et puy des gouttes_1]]></name>
    <extensions>
      <line xmlns="http://www.topografix.com/GPX/gpx_style/0/2">
        <color>00FF00</color>
        <width>4</width>
      </line>
    </extensions>
    <trkseg>
      <trkpt lat="45.84133" lon="2.92943">
        <ele>892.9</ele>
        <time>2021-07-30T08:15:41.000Z</time>
      </trkpt>
      <trkpt lat="45.84133" lon="2.92943">
        <ele>892.9</ele>
        <time>2021-07-30T08:15:41.000Z</time>
      </trkpt>
      <trkpt lat="45.84133" lon="2.92943">
        <ele>892.9</ele>
        <time>2021-07-30T08:15:41.000Z</time>
      </trkpt>
      <trkpt lat="45.84127" lon="2.92948">
        <ele>893.4</ele>
        <time>2021-07-30T08:15:54.827Z</time>
      </trkpt>
      <trkpt lat="45.84135" lon="2.92971">
        <ele>895.3</ele>
        <time>2021-07-30T08:16:43.099Z</time>
      </trkpt>
      <trkpt lat="45.84143" lon="2.92984">
        <ele>896.3</ele>
        <time>2021-07-30T08:17:09.329Z</time>
      </trkpt>
      <trkpt lat="45.84158" lon="2.93002">
        <ele>898</ele>
        <time>2021-07-30T08:17:53.307Z</time>
      </trkpt>
      <trkpt lat="45.84168" lon="2.93018">
        <ele>899.5</ele>
        <time>2021-07-30T08:18:31.336Z</time>
      </trkpt>
      <trkpt lat="45.84178" lon="2.93031">
        <ele>900.8</ele>
        <time>2021-07-30T08:19:04.370Z</time>
      </trkpt>
      <trkpt lat="45.84187" lon="2.93046">
        <ele>902.2</ele>
        <time>2021-07-30T08:19:39.860Z</time>
      </trkpt>
      <trkpt lat="45.84188" lon="2.93048">
        <ele>902.4</ele>
        <time>2021-07-30T08:19:45.048Z</time>
      </trkpt>
      <trkpt lat="45.84189" lon="2.93049">
        <ele>902.5</ele>
        <time>2021-07-30T08:19:47.678Z</time>
      </trkpt>
      <trkpt lat="45.84198" lon="2.93066">
        <ele>904.2</ele>
        <time>2021-07-30T08:20:31.492Z</time>
      </trkpt>
      <trkpt lat="45.84211" lon="2.93098">
        <ele>907.2</ele>
        <time>2021-07-30T08:21:49.232Z</time>
      </trkpt>
      <trkpt lat="45.84219" lon="2.93125">
        <ele>909.6</ele>
        <time>2021-07-30T08:22:51.649Z</time>
      </trkpt>
      <trkpt lat="45.84236" lon="2.93177">
        <ele>914.2</ele>
        <time>2021-07-30T08:24:50.412Z</time>
      </trkpt>
      <trkpt lat="45.8425" lon="2.93216">
        <ele>917.5</ele>
        <time>2021-07-30T08:26:14.429Z</time>
      </trkpt>
      <trkpt lat="45.84264" lon="2.93256">
        <ele>919.9</ele>
        <time>2021-07-30T08:27:18.999Z</time>
      </trkpt>
      <trkpt lat="45.84273" lon="2.93282">
        <ele>921.5</ele>
        <time>2021-07-30T08:28:01.604Z</time>
      </trkpt>
      <trkpt lat="45.84282" lon="2.93312">
        <ele>923.7</ele>
        <time>2021-07-30T08:28:57.491Z</time>
      </trkpt>
      <trkpt lat="45.84294" lon="2.93354">
        <ele>926.6</ele>
        <time>2021-07-30T08:30:11.672Z</time>
      </trkpt>
      <trkpt lat="45.84307" lon="2.93412">
        <ele>930.1</ele>
        <time>2021-07-30T08:31:43.578Z</time>
      </trkpt>
      <trkpt lat="45.84319" lon="2.9348">
        <ele>932.6</ele>
        <time>2021-07-30T08:33:07.523Z</time>
      </trkpt>
      <trkpt lat="45.84325" lon="2.93516">
        <ele>933.5</ele>
        <time>2021-07-30T08:33:44.478Z</time>
      </trkpt>
      <trkpt lat="45.84328" lon="2.93541">
        <ele>934.1</ele>
        <time>2021-07-30T08:34:09.485Z</time>
      </trkpt>
      <trkpt lat="45.84328" lon="2.93565">
        <ele>934.6</ele>
        <time>2021-07-30T08:34:31.935Z</time>
      </trkpt>
      <trkpt lat="45.84327" lon="2.93584">
        <ele>935.1</ele>
        <time>2021-07-30T08:34:51.694Z</time>
      </trkpt>
      <trkpt lat="45.84327" lon="2.93673">
        <ele>936.3</ele>
        <time>2021-07-30T08:36:05.167Z</time>
      </trkpt>
      <trkpt lat="45.84327" lon="2.93677">
        <ele>936.5</ele>
        <time>2021-07-30T08:36:10.708Z</time>
      </trkpt>
      <trkpt lat="45.84328" lon="2.9369">
        <ele>937.1</ele>
        <time>2021-07-30T08:36:28.041Z</time>
      </trkpt>
      <trkpt lat="45.84331" lon="2.93708">
        <ele>938</ele>
        <time>2021-07-30T08:36:53.299Z</time>
      </trkpt>
      <trkpt lat="45.84335" lon="2.93721">
        <ele>938.6</ele>
        <time>2021-07-30T08:37:11.437Z</time>
      </trkpt>
      <trkpt lat="45.84347" lon="2.9376">
        <ele>940.8</ele>
        <time>2021-07-30T08:38:11.552Z</time>
      </trkpt>
      <trkpt lat="45.84356" lon="2.93793">
        <ele>943</ele>
        <time>2021-07-30T08:39:08.141Z</time>
      </trkpt>
      <trkpt lat="45.84362" lon="2.93829">
        <ele>945.4</ele>
        <time>2021-07-30T08:40:09.386Z</time>
      </trkpt>
      <trkpt lat="45.84366" lon="2.93849">
        <ele>946</ele>
        <time>2021-07-30T08:40:32.149Z</time>
      </trkpt>
      <trkpt lat="45.84378" lon="2.93909">
        <ele>946.9</ele>
        <time>2021-07-30T08:41:24.463Z</time>
      </trkpt>
      <trkpt lat="45.84383" lon="2.93931">
        <ele>947</ele>
        <time>2021-07-30T08:41:41.127Z</time>
      </trkpt>
      <trkpt lat="45.84392" lon="2.9397">
        <ele>947.3</ele>
        <time>2021-07-30T08:42:11.994Z</time>
      </trkpt>
      <trkpt lat="45.8441" lon="2.94031">
        <ele>947.8</ele>
        <time>2021-07-30T08:43:01.945Z</time>
      </trkpt>
      <trkpt lat="45.8442" lon="2.94068">
        <ele>948.1</ele>
        <time>2021-07-30T08:43:31.874Z</time>
      </trkpt>
      <trkpt lat="45.84444" lon="2.94176">
        <ele>948.8</ele>
        <time>2021-07-30T08:44:55.671Z</time>
      </trkpt>
      <trkpt lat="45.84457" lon="2.94231">
        <ele>950.2</ele>
        <time>2021-07-30T08:45:53.421Z</time>
      </trkpt>
      <trkpt lat="45.84463" lon="2.94259">
        <ele>950.9</ele>
        <time>2021-07-30T08:46:22.433Z</time>
      </trkpt>
      <trkpt lat="45.8447" lon="2.94292">
        <ele>952</ele>
        <time>2021-07-30T08:47:02.296Z</time>
      </trkpt>
      <trkpt lat="45.84474" lon="2.9432">
        <ele>952.7</ele>
        <time>2021-07-30T08:47:30.929Z</time>
      </trkpt>
      <trkpt lat="45.84479" lon="2.94374">
        <ele>953.8</ele>
        <time>2021-07-30T08:48:21.301Z</time>
      </trkpt>
      <trkpt lat="45.84477" lon="2.94406">
        <ele>954.5</ele>
        <time>2021-07-30T08:48:51.883Z</time>
      </trkpt>
      <trkpt lat="45.84478" lon="2.94417">
        <ele>954.7</ele>
        <time>2021-07-30T08:49:01.759Z</time>
      </trkpt>
      <trkpt lat="45.84488" lon="2.94471">
        <ele>956.2</ele>
        <time>2021-07-30T08:50:00.411Z</time>
      </trkpt>
      <trkpt lat="45.8449" lon="2.94501">
        <ele>956.9</ele>
        <time>2021-07-30T08:50:29.880Z</time>
      </trkpt>
      <trkpt lat="45.84495" lon="2.94543">
        <ele>956.9</ele>
        <time>2021-07-30T08:50:58.818Z</time>
      </trkpt>
      <trkpt lat="45.84496" lon="2.94557">
        <ele>957</ele>
        <time>2021-07-30T08:51:09.361Z</time>
      </trkpt>
      <trkpt lat="45.84497" lon="2.94587">
        <ele>957</ele>
        <time>2021-07-30T08:51:29.760Z</time>
      </trkpt>
      <trkpt lat="45.84497" lon="2.94608">
        <ele>957</ele>
        <time>2021-07-30T08:51:44.022Z</time>
      </trkpt>
      <trkpt lat="45.84503" lon="2.94649">
        <ele>957.2</ele>
        <time>2021-07-30T08:52:14.382Z</time>
      </trkpt>
      <trkpt lat="45.84503" lon="2.94666">
        <ele>957.2</ele>
        <time>2021-07-30T08:52:25.927Z</time>
      </trkpt>
      <trkpt lat="45.84503" lon="2.94674">
        <ele>957.3</ele>
        <time>2021-07-30T08:52:32.429Z</time>
      </trkpt>
      <trkpt lat="45.84503" lon="2.94685">
        <ele>957.6</ele>
        <time>2021-07-30T08:52:44.077Z</time>
      </trkpt>
      <trkpt lat="45.84501" lon="2.94701">
        <ele>957.9</ele>
        <time>2021-07-30T08:52:58.655Z</time>
      </trkpt>
      <trkpt lat="45.84501" lon="2.94765">
        <ele>959.9</ele>
        <time>2021-07-30T08:54:12.183Z</time>
      </trkpt>
      <trkpt lat="45.84502" lon="2.94777">
        <ele>960.7</ele>
        <time>2021-07-30T08:54:32.541Z</time>
      </trkpt>
      <trkpt lat="45.84505" lon="2.94792">
        <ele>961.7</ele>
        <time>2021-07-30T08:54:58.107Z</time>
      </trkpt>
      <trkpt lat="45.84515" lon="2.94822">
        <ele>964.1</ele>
        <time>2021-07-30T08:55:58.978Z</time>
      </trkpt>
      <trkpt lat="45.84519" lon="2.9484">
        <ele>965.6</ele>
        <time>2021-07-30T08:56:37.606Z</time>
      </trkpt>
      <trkpt lat="45.84524" lon="2.94847">
        <ele>966.4</ele>
        <time>2021-07-30T08:56:58.238Z</time>
      </trkpt>
      <trkpt lat="45.84532" lon="2.94866">
        <ele>968.2</ele>
        <time>2021-07-30T08:57:44.901Z</time>
      </trkpt>
      <trkpt lat="45.84553" lon="2.94903">
        <ele>971.4</ele>
        <time>2021-07-30T08:59:06.223Z</time>
      </trkpt>
      <trkpt lat="45.8457" lon="2.9495">
        <ele>972.7</ele>
        <time>2021-07-30T08:59:59.333Z</time>
      </trkpt>
      <trkpt lat="45.84574" lon="2.94966">
        <ele>972.6</ele>
        <time>2021-07-30T09:00:03.587Z</time>
      </trkpt>
      <trkpt lat="45.84579" lon="2.94986">
        <ele>972.3</ele>
        <time>2021-07-30T09:00:08.169Z</time>
      </trkpt>
      <trkpt lat="45.84587" lon="2.95007">
        <ele>972.8</ele>
        <time>2021-07-30T09:00:30.581Z</time>
      </trkpt>
      <trkpt lat="45.846" lon="2.95041">
        <ele>976.3</ele>
        <time>2021-07-30T09:02:06.777Z</time>
      </trkpt>
      <trkpt lat="45.84603" lon="2.95048">
        <ele>977.1</ele>
        <time>2021-07-30T09:02:28.307Z</time>
      </trkpt>
      <trkpt lat="45.84608" lon="2.95073">
        <ele>979.1</ele>
        <time>2021-07-30T09:03:19.416Z</time>
      </trkpt>
      <trkpt lat="45.84619" lon="2.95157">
        <ele>984.7</ele>
        <time>2021-07-30T09:05:42.107Z</time>
      </trkpt>
      <trkpt lat="45.84621" lon="2.9518">
        <ele>985.7</ele>
        <time>2021-07-30T09:06:11.967Z</time>
      </trkpt>
      <trkpt lat="45.84625" lon="2.95202">
        <ele>986.6</ele>
        <time>2021-07-30T09:06:40.232Z</time>
      </trkpt>
      <trkpt lat="45.84631" lon="2.95225">
        <ele>987.6</ele>
        <time>2021-07-30T09:07:11.107Z</time>
      </trkpt>
      <trkpt lat="45.84642" lon="2.95262">
        <ele>988.5</ele>
        <time>2021-07-30T09:07:49.816Z</time>
      </trkpt>
      <trkpt lat="45.84645" lon="2.95273">
        <ele>988.5</ele>
        <time>2021-07-30T09:07:57.839Z</time>
      </trkpt>
      <trkpt lat="45.84654" lon="2.95285">
        <ele>988.6</ele>
        <time>2021-07-30T09:08:10.780Z</time>
      </trkpt>
      <trkpt lat="45.8466" lon="2.95296">
        <ele>988.5</ele>
        <time>2021-07-30T09:08:14.191Z</time>
      </trkpt>
      <trkpt lat="45.84672" lon="2.95325">
        <ele>987.9</ele>
        <time>2021-07-30T09:08:21.042Z</time>
      </trkpt>
      <trkpt lat="45.84691" lon="2.95368">
        <ele>988.5</ele>
        <time>2021-07-30T09:09:01.966Z</time>
      </trkpt>
      <trkpt lat="45.84709" lon="2.95402">
        <ele>989.3</ele>
        <time>2021-07-30T09:09:40.448Z</time>
      </trkpt>
      <trkpt lat="45.8474" lon="2.95454">
        <ele>989.9</ele>
        <time>2021-07-30T09:10:32.987Z</time>
      </trkpt>
      <trkpt lat="45.84753" lon="2.95485">
        <ele>988.8</ele>
        <time>2021-07-30T09:10:39.115Z</time>
      </trkpt>
      <trkpt lat="45.84785" lon="2.95549">
        <ele>989</ele>
        <time>2021-07-30T09:11:34.466Z</time>
      </trkpt>
      <trkpt lat="45.84798" lon="2.95582">
        <ele>989.2</ele>
        <time>2021-07-30T09:12:02.132Z</time>
      </trkpt>
      <trkpt lat="45.84799" lon="2.95588">
        <ele>989.2</ele>
        <time>2021-07-30T09:12:06.322Z</time>
      </trkpt>
      <trkpt lat="45.84803" lon="2.95604">
        <ele>989.4</ele>
        <time>2021-07-30T09:12:19.979Z</time>
      </trkpt>
      <trkpt lat="45.84827" lon="2.95732">
        <ele>990.1</ele>
        <time>2021-07-30T09:13:56.720Z</time>
      </trkpt>
      <trkpt lat="45.84856" lon="2.95865">
        <ele>995.8</ele>
        <time>2021-07-30T09:16:52.237Z</time>
      </trkpt>
      <trkpt lat="45.84864" lon="2.95905">
        <ele>997.9</ele>
        <time>2021-07-30T09:17:50.176Z</time>
      </trkpt>
      <trkpt lat="45.84893" lon="2.96037">
        <ele>1004.2</ele>
        <time>2021-07-30T09:20:52.908Z</time>
      </trkpt>
      <trkpt lat="45.84905" lon="2.96058">
        <ele>1005.2</ele>
        <time>2021-07-30T09:21:25.777Z</time>
      </trkpt>
      <trkpt lat="45.84922" lon="2.96078">
        <ele>1005.9</ele>
        <time>2021-07-30T09:21:56.032Z</time>
      </trkpt>
      <trkpt lat="45.84947" lon="2.96106">
        <ele>1010.3</ele>
        <time>2021-07-30T09:23:55.272Z</time>
      </trkpt>
      <trkpt lat="45.84987" lon="2.96154">
        <ele>1014.3</ele>
        <time>2021-07-30T09:25:43.015Z</time>
      </trkpt>
      <trkpt lat="45.85001" lon="2.96167">
        <ele>1014.3</ele>
        <time>2021-07-30T09:25:59.271Z</time>
      </trkpt>
      <trkpt lat="45.85018" lon="2.96179">
        <ele>1018.2</ele>
        <time>2021-07-30T09:27:10.511Z</time>
      </trkpt>
      <trkpt lat="45.85021" lon="2.96182">
        <ele>1018.8</ele>
        <time>2021-07-30T09:27:24.259Z</time>
      </trkpt>
      <trkpt lat="45.85038" lon="2.96198">
        <ele>1022.4</ele>
        <time>2021-07-30T09:28:40.702Z</time>
      </trkpt>
      <trkpt lat="45.85046" lon="2.96212">
        <ele>1024.5</ele>
        <time>2021-07-30T09:29:28.135Z</time>
      </trkpt>
      <trkpt lat="45.85059" lon="2.96245">
        <ele>1028</ele>
        <time>2021-07-30T09:31:06.175Z</time>
      </trkpt>
      <trkpt lat="45.85074" lon="2.96278">
        <ele>1031.4</ele>
        <time>2021-07-30T09:32:36.863Z</time>
      </trkpt>
      <trkpt lat="45.85095" lon="2.96313">
        <ele>1035.2</ele>
        <time>2021-07-30T09:34:15.912Z</time>
      </trkpt>
      <trkpt lat="45.85112" lon="2.96333">
        <ele>1037.3</ele>
        <time>2021-07-30T09:35:09.319Z</time>
      </trkpt>
      <trkpt lat="45.85126" lon="2.96352">
        <ele>1039</ele>
        <time>2021-07-30T09:35:53.143Z</time>
      </trkpt>
      <trkpt lat="45.85141" lon="2.96369">
        <ele>1039.4</ele>
        <time>2021-07-30T09:36:16.195Z</time>
      </trkpt>
      <trkpt lat="45.8516" lon="2.96396">
        <ele>1038.1</ele>
        <time>2021-07-30T09:36:22.410Z</time>
      </trkpt>
      <trkpt lat="45.85157" lon="2.9641">
        <ele>1038.7</ele>
        <time>2021-07-30T09:36:40.868Z</time>
      </trkpt>
      <trkpt lat="45.85057" lon="2.9665">
        <ele>1079.7</ele>
        <time>2021-07-30T09:48:53.407Z</time>
      </trkpt>
      <trkpt lat="45.8505" lon="2.96659">
        <ele>1081.7</ele>
        <time>2021-07-30T09:49:28.744Z</time>
      </trkpt>
      <trkpt lat="45.85041" lon="2.9667">
        <ele>1084.5</ele>
        <time>2021-07-30T09:50:13.193Z</time>
      </trkpt>
      <trkpt lat="45.8503" lon="2.96676">
        <ele>1087.7</ele>
        <time>2021-07-30T09:50:57.445Z</time>
      </trkpt>
      <trkpt lat="45.85005" lon="2.96694">
        <ele>1094.9</ele>
        <time>2021-07-30T09:52:42.620Z</time>
      </trkpt>
      <trkpt lat="45.84968" lon="2.96721">
        <ele>1102.5</ele>
        <time>2021-07-30T09:55:18.705Z</time>
      </trkpt>
      <trkpt lat="45.8493" lon="2.96745">
        <ele>1111.6</ele>
        <time>2021-07-30T09:57:54.824Z</time>
      </trkpt>
      <trkpt lat="45.84924" lon="2.96747">
        <ele>1113.1</ele>
        <time>2021-07-30T09:58:17.988Z</time>
      </trkpt>
      <trkpt lat="45.84918" lon="2.96747">
        <ele>1114.8</ele>
        <time>2021-07-30T09:58:40.551Z</time>
      </trkpt>
      <trkpt lat="45.84914" lon="2.96761">
        <ele>1115.2</ele>
        <time>2021-07-30T09:58:56.303Z</time>
      </trkpt>
      <trkpt lat="45.84899" lon="2.96802">
        <ele>1117.9</ele>
        <time>2021-07-30T10:00:06.880Z</time>
      </trkpt>
      <trkpt lat="45.84894" lon="2.96807">
        <ele>1118.8</ele>
        <time>2021-07-30T10:00:29.795Z</time>
      </trkpt>
      <trkpt lat="45.84892" lon="2.96815">
        <ele>1119.6</ele>
        <time>2021-07-30T10:00:52.060Z</time>
      </trkpt>
      <trkpt lat="45.84883" lon="2.96829">
        <ele>1122.1</ele>
        <time>2021-07-30T10:01:41.963Z</time>
      </trkpt>
      <trkpt lat="45.84872" lon="2.96845">
        <ele>1124.6</ele>
        <time>2021-07-30T10:02:40.851Z</time>
      </trkpt>
      <trkpt lat="45.84869" lon="2.96848">
        <ele>1125.1</ele>
        <time>2021-07-30T10:02:54.600Z</time>
      </trkpt>
      <trkpt lat="45.84861" lon="2.96856">
        <ele>1127.1</ele>
        <time>2021-07-30T10:03:31.264Z</time>
      </trkpt>
      <trkpt lat="45.84847" lon="2.96864">
        <ele>1130.6</ele>
        <time>2021-07-30T10:04:27.929Z</time>
      </trkpt>
      <trkpt lat="45.84836" lon="2.96881">
        <ele>1134.1</ele>
        <time>2021-07-30T10:05:28.709Z</time>
      </trkpt>
      <trkpt lat="45.8483" lon="2.96885">
        <ele>1135.2</ele>
        <time>2021-07-30T10:05:53.587Z</time>
      </trkpt>
      <trkpt lat="45.84824" lon="2.96885">
        <ele>1135.5</ele>
        <time>2021-07-30T10:06:03.816Z</time>
      </trkpt>
      <trkpt lat="45.84821" lon="2.96889">
        <ele>1135.8</ele>
        <time>2021-07-30T10:06:12.051Z</time>
      </trkpt>
      <trkpt lat="45.84816" lon="2.96891">
        <ele>1136</ele>
        <time>2021-07-30T10:06:19.872Z</time>
      </trkpt>
      <trkpt lat="45.8481" lon="2.96889">
        <ele>1136.2</ele>
        <time>2021-07-30T10:06:28.420Z</time>
      </trkpt>
      <trkpt lat="45.84769" lon="2.96868">
        <ele>1138.2</ele>
        <time>2021-07-30T10:07:40.710Z</time>
      </trkpt>
      <trkpt lat="45.84758" lon="2.96857">
        <ele>1139.3</ele>
        <time>2021-07-30T10:08:09.640Z</time>
      </trkpt>
      <trkpt lat="45.84745" lon="2.96848">
        <ele>1139.9</ele>
        <time>2021-07-30T10:08:32.365Z</time>
      </trkpt>
      <trkpt lat="45.84732" lon="2.96834">
        <ele>1139.7</ele>
        <time>2021-07-30T10:08:37.912Z</time>
      </trkpt>
      <trkpt lat="45.8472" lon="2.96819">
        <ele>1138.6</ele>
        <time>2021-07-30T10:08:41.398Z</time>
      </trkpt>
      <trkpt lat="45.84703" lon="2.96792">
        <ele>1139</ele>
        <time>2021-07-30T10:09:10.291Z</time>
      </trkpt>
      <trkpt lat="45.84692" lon="2.96768">
        <ele>1140.9</ele>
        <time>2021-07-30T10:09:58.646Z</time>
      </trkpt>
      <trkpt lat="45.84688" lon="2.9676">
        <ele>1141.9</ele>
        <time>2021-07-30T10:10:24.443Z</time>
      </trkpt>
      <trkpt lat="45.84688" lon="2.96753">
        <ele>1142.5</ele>
        <time>2021-07-30T10:10:40.387Z</time>
      </trkpt>
      <trkpt lat="45.84679" lon="2.96726">
        <ele>1144.8</ele>
        <time>2021-07-30T10:11:39.155Z</time>
      </trkpt>
      <trkpt lat="45.84675" lon="2.96713">
        <ele>1146</ele>
        <time>2021-07-30T10:12:10.796Z</time>
      </trkpt>
      <trkpt lat="45.84673" lon="2.96707">
        <ele>1146.7</ele>
        <time>2021-07-30T10:12:28.220Z</time>
      </trkpt>
      <trkpt lat="45.84664" lon="2.96667">
        <ele>1149.4</ele>
        <time>2021-07-30T10:13:37.221Z</time>
      </trkpt>
      <trkpt lat="45.84658" lon="2.9667">
        <ele>1148.3</ele>
        <time>2021-07-30T10:13:38.613Z</time>
      </trkpt>
      <trkpt lat="45.84654" lon="2.96668">
        <ele>1147.7</ele>
        <time>2021-07-30T10:13:39.541Z</time>
      </trkpt>
      <trkpt lat="45.84649" lon="2.96661">
        <ele>1146.8</ele>
        <time>2021-07-30T10:13:41.071Z</time>
      </trkpt>
      <trkpt lat="45.84639" lon="2.96661">
        <ele>1145.1</ele>
        <time>2021-07-30T10:13:43.262Z</time>
      </trkpt>
      <trkpt lat="45.84621" lon="2.96647">
        <ele>1141.8</ele>
        <time>2021-07-30T10:13:47.747Z</time>
      </trkpt>
      <trkpt lat="45.84617" lon="2.96645">
        <ele>1141.2</ele>
        <time>2021-07-30T10:13:48.675Z</time>
      </trkpt>
      <trkpt lat="45.84607" lon="2.96638">
        <ele>1139.2</ele>
        <time>2021-07-30T10:13:51.112Z</time>
      </trkpt>
      <trkpt lat="45.84603" lon="2.96624">
        <ele>1138.4</ele>
        <time>2021-07-30T10:13:53.421Z</time>
      </trkpt>
      <trkpt lat="45.84598" lon="2.96615">
        <ele>1137.3</ele>
        <time>2021-07-30T10:13:55.178Z</time>
      </trkpt>
      <trkpt lat="45.84596" lon="2.96608">
        <ele>1136.9</ele>
        <time>2021-07-30T10:13:56.332Z</time>
      </trkpt>
      <trkpt lat="45.84596" lon="2.966">
        <ele>1136.8</ele>
        <time>2021-07-30T10:13:58.106Z</time>
      </trkpt>
      <trkpt lat="45.84592" lon="2.96593">
        <ele>1136</ele>
        <time>2021-07-30T10:13:59.487Z</time>
      </trkpt>
      <trkpt lat="45.84586" lon="2.96586">
        <ele>1134.6</ele>
        <time>2021-07-30T10:14:01.181Z</time>
      </trkpt>
      <trkpt lat="45.84577" lon="2.96584">
        <ele>1133.5</ele>
        <time>2021-07-30T10:14:03.176Z</time>
      </trkpt>
      <trkpt lat="45.84569" lon="2.9658">
        <ele>1132.6</ele>
        <time>2021-07-30T10:14:05.032Z</time>
      </trkpt>
      <trkpt lat="45.84549" lon="2.96561">
        <ele>1129.1</ele>
        <time>2021-07-30T10:14:10.286Z</time>
      </trkpt>
      <trkpt lat="45.84544" lon="2.96557">
        <ele>1128.4</ele>
        <time>2021-07-30T10:14:11.540Z</time>
      </trkpt>
      <trkpt lat="45.84539" lon="2.9655">
        <ele>1127.5</ele>
        <time>2021-07-30T10:14:13.070Z</time>
      </trkpt>
      <trkpt lat="45.84535" lon="2.96549">
        <ele>1127.3</ele>
        <time>2021-07-30T10:14:14.009Z</time>
      </trkpt>
      <trkpt lat="45.8453" lon="2.96549">
        <ele>1127.2</ele>
        <time>2021-07-30T10:14:15.561Z</time>
      </trkpt>
      <trkpt lat="45.84523" lon="2.96552">
        <ele>1127.2</ele>
        <time>2021-07-30T10:14:22.684Z</time>
      </trkpt>
      <trkpt lat="45.84515" lon="2.96543">
        <ele>1126.4</ele>
        <time>2021-07-30T10:14:24.910Z</time>
      </trkpt>
      <trkpt lat="45.84497" lon="2.96537">
        <ele>1126.3</ele>
        <time>2021-07-30T10:14:41.547Z</time>
      </trkpt>
      <trkpt lat="45.84479" lon="2.96533">
        <ele>1129</ele>
        <time>2021-07-30T10:15:50.044Z</time>
      </trkpt>
      <trkpt lat="45.84475" lon="2.96524">
        <ele>1129.4</ele>
        <time>2021-07-30T10:16:03.045Z</time>
      </trkpt>
      <trkpt lat="45.84472" lon="2.96502">
        <ele>1129.4</ele>
        <time>2021-07-30T10:16:18.270Z</time>
      </trkpt>
      <trkpt lat="45.84468" lon="2.96479">
        <ele>1127.9</ele>
        <time>2021-07-30T10:16:21.888Z</time>
      </trkpt>
      <trkpt lat="45.84461" lon="2.96467">
        <ele>1128</ele>
        <time>2021-07-30T10:16:33.493Z</time>
      </trkpt>
      <trkpt lat="45.8445" lon="2.96454">
        <ele>1128.6</ele>
        <time>2021-07-30T10:16:56.107Z</time>
      </trkpt>
      <trkpt lat="45.84443" lon="2.96446">
        <ele>1129.2</ele>
        <time>2021-07-30T10:17:13.280Z</time>
      </trkpt>
      <trkpt lat="45.84438" lon="2.96441">
        <ele>1129.5</ele>
        <time>2021-07-30T10:17:23.616Z</time>
      </trkpt>
      <trkpt lat="45.84431" lon="2.96438">
        <ele>1130.5</ele>
        <time>2021-07-30T10:17:51.089Z</time>
      </trkpt>
      <trkpt lat="45.84401" lon="2.96455">
        <ele>1134.7</ele>
        <time>2021-07-30T10:19:46.996Z</time>
      </trkpt>
      <trkpt lat="45.8439" lon="2.96459">
        <ele>1135</ele>
        <time>2021-07-30T10:20:01.595Z</time>
      </trkpt>
      <trkpt lat="45.84367" lon="2.96469">
        <ele>1135.5</ele>
        <time>2021-07-30T10:20:30.542Z</time>
      </trkpt>
      <trkpt lat="45.84349" lon="2.9649">
        <ele>1137.3</ele>
        <time>2021-07-30T10:21:18.815Z</time>
      </trkpt>
      <trkpt lat="45.84343" lon="2.96494">
        <ele>1137.6</ele>
        <time>2021-07-30T10:21:29.759Z</time>
      </trkpt>
      <trkpt lat="45.84335" lon="2.96499">
        <ele>1137.9</ele>
        <time>2021-07-30T10:21:42.177Z</time>
      </trkpt>
      <trkpt lat="45.84327" lon="2.965">
        <ele>1137.2</ele>
        <time>2021-07-30T10:21:43.936Z</time>
      </trkpt>
      <trkpt lat="45.84314" lon="2.96499">
        <ele>1135.6</ele>
        <time>2021-07-30T10:21:46.788Z</time>
      </trkpt>
      <trkpt lat="45.84307" lon="2.96496">
        <ele>1134.7</ele>
        <time>2021-07-30T10:21:48.389Z</time>
      </trkpt>
      <trkpt lat="45.843" lon="2.9649">
        <ele>1133.7</ele>
        <time>2021-07-30T10:21:50.175Z</time>
      </trkpt>
      <trkpt lat="45.84285" lon="2.96479">
        <ele>1132.4</ele>
        <time>2021-07-30T10:21:53.865Z</time>
      </trkpt>
      <trkpt lat="45.84254" lon="2.96447">
        <ele>1133</ele>
        <time>2021-07-30T10:22:37.351Z</time>
      </trkpt>
      <trkpt lat="45.84229" lon="2.96413">
        <ele>1134.2</ele>
        <time>2021-07-30T10:23:26.668Z</time>
      </trkpt>
      <trkpt lat="45.8422" lon="2.96403">
        <ele>1134.1</ele>
        <time>2021-07-30T10:23:30.737Z</time>
      </trkpt>
      <trkpt lat="45.8419" lon="2.9636">
        <ele>1136.5</ele>
        <time>2021-07-30T10:24:46.284Z</time>
      </trkpt>
      <trkpt lat="45.84177" lon="2.96349">
        <ele>1137.7</ele>
        <time>2021-07-30T10:25:18.179Z</time>
      </trkpt>
      <trkpt lat="45.84162" lon="2.96339">
        <ele>1137.6</ele>
        <time>2021-07-30T10:25:32.937Z</time>
      </trkpt>
      <trkpt lat="45.8413" lon="2.96318">
        <ele>1128.2</ele>
        <time>2021-07-30T10:25:40.645Z</time>
      </trkpt>
      <trkpt lat="45.84116" lon="2.963">
        <ele>1123.6</ele>
        <time>2021-07-30T10:25:44.762Z</time>
      </trkpt>
      <trkpt lat="45.84071" lon="2.96256">
        <ele>1111</ele>
        <time>2021-07-30T10:25:56.690Z</time>
      </trkpt>
      <trkpt lat="45.84066" lon="2.96252">
        <ele>1110.3</ele>
        <time>2021-07-30T10:25:57.944Z</time>
      </trkpt>
      <trkpt lat="45.84059" lon="2.96246">
        <ele>1108.8</ele>
        <time>2021-07-30T10:25:59.730Z</time>
      </trkpt>
      <trkpt lat="45.84005" lon="2.96223">
        <ele>1097.9</ele>
        <time>2021-07-30T10:26:12.070Z</time>
      </trkpt>
      <trkpt lat="45.83988" lon="2.96221">
        <ele>1095.4</ele>
        <time>2021-07-30T10:26:15.807Z</time>
      </trkpt>
      <trkpt lat="45.83971" lon="2.96216">
        <ele>1093</ele>
        <time>2021-07-30T10:26:19.608Z</time>
      </trkpt>
      <trkpt lat="45.83959" lon="2.96207">
        <ele>1090.7</ele>
        <time>2021-07-30T10:26:22.574Z</time>
      </trkpt>
      <trkpt lat="45.83951" lon="2.96203">
        <ele>1089.4</ele>
        <time>2021-07-30T10:26:24.430Z</time>
      </trkpt>
      <trkpt lat="45.83944" lon="2.96205">
        <ele>1088.8</ele>
        <time>2021-07-30T10:26:25.994Z</time>
      </trkpt>
      <trkpt lat="45.83928" lon="2.96213">
        <ele>1087.6</ele>
        <time>2021-07-30T10:26:29.705Z</time>
      </trkpt>
      <trkpt lat="45.83914" lon="2.96218">
        <ele>1086.3</ele>
        <time>2021-07-30T10:26:32.866Z</time>
      </trkpt>
      <trkpt lat="45.83872" lon="2.96225">
        <ele>1080.3</ele>
        <time>2021-07-30T10:26:42.129Z</time>
      </trkpt>
      <trkpt lat="45.83844" lon="2.96227">
        <ele>1076.2</ele>
        <time>2021-07-30T10:26:48.270Z</time>
      </trkpt>
      <trkpt lat="45.83791" lon="2.96221">
        <ele>1064.8</ele>
        <time>2021-07-30T10:26:59.917Z</time>
      </trkpt>
      <trkpt lat="45.8378" lon="2.96221">
        <ele>1062.4</ele>
        <time>2021-07-30T10:27:02.327Z</time>
      </trkpt>
      <trkpt lat="45.83755" lon="2.96211">
        <ele>1056.6</ele>
        <time>2021-07-30T10:27:08.012Z</time>
      </trkpt>
      <trkpt lat="45.83745" lon="2.96204">
        <ele>1053.8</ele>
        <time>2021-07-30T10:27:10.450Z</time>
      </trkpt>
      <trkpt lat="45.83742" lon="2.96198">
        <ele>1052.7</ele>
        <time>2021-07-30T10:27:11.577Z</time>
      </trkpt>
      <trkpt lat="45.8374" lon="2.96185">
        <ele>1051.6</ele>
        <time>2021-07-30T10:27:13.609Z</time>
      </trkpt>
      <trkpt lat="45.83738" lon="2.96156">
        <ele>1049.9</ele>
        <time>2021-07-30T10:27:18.057Z</time>
      </trkpt>
      <trkpt lat="45.83735" lon="2.9614">
        <ele>1047.9</ele>
        <time>2021-07-30T10:27:20.585Z</time>
      </trkpt>
      <trkpt lat="45.83732" lon="2.96075">
        <ele>1043</ele>
        <time>2021-07-30T10:27:30.528Z</time>
      </trkpt>
      <trkpt lat="45.8373" lon="2.96053">
        <ele>1040.7</ele>
        <time>2021-07-30T10:27:33.914Z</time>
      </trkpt>
      <trkpt lat="45.83726" lon="2.96024">
        <ele>1037.6</ele>
        <time>2021-07-30T10:27:38.426Z</time>
      </trkpt>
      <trkpt lat="45.83725" lon="2.96019">
        <ele>1037.1</ele>
        <time>2021-07-30T10:27:39.220Z</time>
      </trkpt>
      <trkpt lat="45.83722" lon="2.96015">
        <ele>1036.5</ele>
        <time>2021-07-30T10:27:40.117Z</time>
      </trkpt>
      <trkpt lat="45.83701" lon="2.96001">
        <ele>1034.1</ele>
        <time>2021-07-30T10:27:45.190Z</time>
      </trkpt>
      <trkpt lat="45.83668" lon="2.95965">
        <ele>1030.4</ele>
        <time>2021-07-30T10:27:54.270Z</time>
      </trkpt>
      <trkpt lat="45.83669" lon="2.95956">
        <ele>1029.9</ele>
        <time>2021-07-30T10:27:55.661Z</time>
      </trkpt>
      <trkpt lat="45.83681" lon="2.95937">
        <ele>1028.9</ele>
        <time>2021-07-30T10:27:59.563Z</time>
      </trkpt>
      <trkpt lat="45.8369" lon="2.95918">
        <ele>1027.5</ele>
        <time>2021-07-30T10:28:03.070Z</time>
      </trkpt>
      <trkpt lat="45.83676" lon="2.9593">
        <ele>1028.5</ele>
        <time>2021-07-30T10:28:33.097Z</time>
      </trkpt>
      <trkpt lat="45.83666" lon="2.95937">
        <ele>1029</ele>
        <time>2021-07-30T10:28:51.456Z</time>
      </trkpt>
      <trkpt lat="45.83655" lon="2.95932">
        <ele>1029.2</ele>
        <time>2021-07-30T10:29:04.828Z</time>
      </trkpt>
      <trkpt lat="45.83645" lon="2.95927">
        <ele>1029.6</ele>
        <time>2021-07-30T10:29:20.615Z</time>
      </trkpt>
      <trkpt lat="45.8364" lon="2.95924">
        <ele>1029.9</ele>
        <time>2021-07-30T10:29:30.190Z</time>
      </trkpt>
      <trkpt lat="45.83632" lon="2.95921">
        <ele>1030.4</ele>
        <time>2021-07-30T10:29:45.324Z</time>
      </trkpt>
      <trkpt lat="45.83601" lon="2.95905">
        <ele>1033.8</ele>
        <time>2021-07-30T10:31:11.543Z</time>
      </trkpt>
      <trkpt lat="45.83578" lon="2.9589">
        <ele>1037.5</ele>
        <time>2021-07-30T10:32:46.547Z</time>
      </trkpt>
      <trkpt lat="45.83563" lon="2.95879">
        <ele>1039.9</ele>
        <time>2021-07-30T10:33:49.892Z</time>
      </trkpt>
      <trkpt lat="45.83553" lon="2.95867">
        <ele>1042.3</ele>
        <time>2021-07-30T10:34:38.910Z</time>
      </trkpt>
      <trkpt lat="45.83541" lon="2.95866">
        <ele>1043.5</ele>
        <time>2021-07-30T10:35:09.336Z</time>
      </trkpt>
      <trkpt lat="45.83531" lon="2.95858">
        <ele>1045.6</ele>
        <time>2021-07-30T10:35:52.389Z</time>
      </trkpt>
      <trkpt lat="45.83507" lon="2.95835">
        <ele>1051.9</ele>
        <time>2021-07-30T10:37:40.913Z</time>
      </trkpt>
      <trkpt lat="45.83493" lon="2.95822">
        <ele>1053.2</ele>
        <time>2021-07-30T10:38:15.716Z</time>
      </trkpt>
      <trkpt lat="45.83484" lon="2.95814">
        <ele>1052.7</ele>
        <time>2021-07-30T10:38:18.208Z</time>
      </trkpt>
      <trkpt lat="45.83457" lon="2.95784">
        <ele>1051.7</ele>
        <time>2021-07-30T10:38:27.769Z</time>
      </trkpt>
      <trkpt lat="45.8344" lon="2.9576">
        <ele>1051.1</ele>
        <time>2021-07-30T10:38:34.751Z</time>
      </trkpt>
      <trkpt lat="45.83414" lon="2.95713">
        <ele>1050.2</ele>
        <time>2021-07-30T10:38:47.507Z</time>
      </trkpt>
      <trkpt lat="45.8341" lon="2.957">
        <ele>1050.4</ele>
        <time>2021-07-30T10:38:59.353Z</time>
      </trkpt>
      <trkpt lat="45.83408" lon="2.95681">
        <ele>1051.5</ele>
        <time>2021-07-30T10:39:28.271Z</time>
      </trkpt>
      <trkpt lat="45.83406" lon="2.95627">
        <ele>1052.8</ele>
        <time>2021-07-30T10:40:21.979Z</time>
      </trkpt>
      <trkpt lat="45.83403" lon="2.95584">
        <ele>1053.2</ele>
        <time>2021-07-30T10:40:55.402Z</time>
      </trkpt>
      <trkpt lat="45.834" lon="2.95574">
        <ele>1052.3</ele>
        <time>2021-07-30T10:40:57.064Z</time>
      </trkpt>
      <trkpt lat="45.83396" lon="2.95568">
        <ele>1051.6</ele>
        <time>2021-07-30T10:40:58.331Z</time>
      </trkpt>
      <trkpt lat="45.83393" lon="2.95565">
        <ele>1051.2</ele>
        <time>2021-07-30T10:40:59.132Z</time>
      </trkpt>
      <trkpt lat="45.83372" lon="2.95553">
        <ele>1049.1</ele>
        <time>2021-07-30T10:41:04.084Z</time>
      </trkpt>
      <trkpt lat="45.83358" lon="2.9555">
        <ele>1048</ele>
        <time>2021-07-30T10:41:07.185Z</time>
      </trkpt>
      <trkpt lat="45.83335" lon="2.95545">
        <ele>1046.3</ele>
        <time>2021-07-30T10:41:12.281Z</time>
      </trkpt>
      <trkpt lat="45.83275" lon="2.95537">
        <ele>1039.6</ele>
        <time>2021-07-30T10:41:25.482Z</time>
      </trkpt>
      <trkpt lat="45.83257" lon="2.95535">
        <ele>1037.8</ele>
        <time>2021-07-30T10:41:29.437Z</time>
      </trkpt>
      <trkpt lat="45.8324" lon="2.95541">
        <ele>1036.3</ele>
        <time>2021-07-30T10:41:33.272Z</time>
      </trkpt>
      <trkpt lat="45.83229" lon="2.95542">
        <ele>1035.5</ele>
        <time>2021-07-30T10:41:35.687Z</time>
      </trkpt>
      <trkpt lat="45.83206" lon="2.95535">
        <ele>1033.7</ele>
        <time>2021-07-30T10:41:40.837Z</time>
      </trkpt>
      <trkpt lat="45.83181" lon="2.95523">
        <ele>1031.6</ele>
        <time>2021-07-30T10:41:46.612Z</time>
      </trkpt>
      <trkpt lat="45.83159" lon="2.95504">
        <ele>1030.8</ele>
        <time>2021-07-30T10:41:53.663Z</time>
      </trkpt>
      <trkpt lat="45.83134" lon="2.95485">
        <ele>1032.3</ele>
        <time>2021-07-30T10:42:42.864Z</time>
      </trkpt>
      <trkpt lat="45.83108" lon="2.95527">
        <ele>1036.1</ele>
        <time>2021-07-30T10:44:19.362Z</time>
      </trkpt>
      <trkpt lat="45.83109" lon="2.95502">
        <ele>1035.6</ele>
        <time>2021-07-30T10:44:24.281Z</time>
      </trkpt>
      <trkpt lat="45.83108" lon="2.95494">
        <ele>1035.2</ele>
        <time>2021-07-30T10:44:25.522Z</time>
      </trkpt>
      <trkpt lat="45.83109" lon="2.95502">
        <ele>1035.6</ele>
        <time>2021-07-30T10:44:36.686Z</time>
      </trkpt>
      <trkpt lat="45.83108" lon="2.95527">
        <ele>1036.1</ele>
        <time>2021-07-30T10:44:59.751Z</time>
      </trkpt>
      <trkpt lat="45.8311" lon="2.95545">
        <ele>1036.2</ele>
        <time>2021-07-30T10:45:13.096Z</time>
      </trkpt>
      <trkpt lat="45.83113" lon="2.95564">
        <ele>1036.2</ele>
        <time>2021-07-30T10:45:26.331Z</time>
      </trkpt>
      <trkpt lat="45.83115" lon="2.95584">
        <ele>1036.3</ele>
        <time>2021-07-30T10:45:41.012Z</time>
      </trkpt>
      <trkpt lat="45.83113" lon="2.95632">
        <ele>1033.4</ele>
        <time>2021-07-30T10:45:48.352Z</time>
      </trkpt>
      <trkpt lat="45.83113" lon="2.95648">
        <ele>1032.4</ele>
        <time>2021-07-30T10:45:50.794Z</time>
      </trkpt>
      <trkpt lat="45.83109" lon="2.95695">
        <ele>1029.3</ele>
        <time>2021-07-30T10:45:58.022Z</time>
      </trkpt>
      <trkpt lat="45.83103" lon="2.95731">
        <ele>1027</ele>
        <time>2021-07-30T10:46:03.672Z</time>
      </trkpt>
      <trkpt lat="45.83095" lon="2.95759">
        <ele>1025.5</ele>
        <time>2021-07-30T10:46:08.291Z</time>
      </trkpt>
      <trkpt lat="45.83084" lon="2.95784">
        <ele>1024.4</ele>
        <time>2021-07-30T10:46:12.888Z</time>
      </trkpt>
      <trkpt lat="45.8307" lon="2.95809">
        <ele>1023.8</ele>
        <time>2021-07-30T10:46:19.312Z</time>
      </trkpt>
      <trkpt lat="45.83051" lon="2.9583">
        <ele>1023</ele>
        <time>2021-07-30T10:46:25.751Z</time>
      </trkpt>
      <trkpt lat="45.83044" lon="2.95835">
        <ele>1022.7</ele>
        <time>2021-07-30T10:46:27.748Z</time>
      </trkpt>
      <trkpt lat="45.83038" lon="2.95839">
        <ele>1022.6</ele>
        <time>2021-07-30T10:46:29.927Z</time>
      </trkpt>
      <trkpt lat="45.83033" lon="2.95841">
        <ele>1022.7</ele>
        <time>2021-07-30T10:46:36.073Z</time>
      </trkpt>
      <trkpt lat="45.83022" lon="2.95849">
        <ele>1022.5</ele>
        <time>2021-07-30T10:46:40.080Z</time>
      </trkpt>
      <trkpt lat="45.83015" lon="2.95867">
        <ele>1021.3</ele>
        <time>2021-07-30T10:46:43.226Z</time>
      </trkpt>
      <trkpt lat="45.8301" lon="2.95877">
        <ele>1020.7</ele>
        <time>2021-07-30T10:46:45.105Z</time>
      </trkpt>
      <trkpt lat="45.83007" lon="2.95889">
        <ele>1019.9</ele>
        <time>2021-07-30T10:46:47.051Z</time>
      </trkpt>
      <trkpt lat="45.83001" lon="2.95909">
        <ele>1018.6</ele>
        <time>2021-07-30T10:46:50.375Z</time>
      </trkpt>
      <trkpt lat="45.82993" lon="2.95927">
        <ele>1016.7</ele>
        <time>2021-07-30T10:46:53.634Z</time>
      </trkpt>
      <trkpt lat="45.82985" lon="2.95938">
        <ele>1015.3</ele>
        <time>2021-07-30T10:46:56.061Z</time>
      </trkpt>
      <trkpt lat="45.82961" lon="2.95965">
        <ele>1011.8</ele>
        <time>2021-07-30T10:47:02.742Z</time>
      </trkpt>
      <trkpt lat="45.82942" lon="2.95992">
        <ele>1007.7</ele>
        <time>2021-07-30T10:47:08.599Z</time>
      </trkpt>
      <trkpt lat="45.82933" lon="2.9601">
        <ele>1005.2</ele>
        <time>2021-07-30T10:47:11.981Z</time>
      </trkpt>
      <trkpt lat="45.82902" lon="2.9605">
        <ele>1001.1</ele>
        <time>2021-07-30T10:47:21.114Z</time>
      </trkpt>
      <trkpt lat="45.82868" lon="2.96072">
        <ele>999</ele>
        <time>2021-07-30T10:47:29.237Z</time>
      </trkpt>
      <trkpt lat="45.82844" lon="2.96089">
        <ele>996.7</ele>
        <time>2021-07-30T10:47:35.100Z</time>
      </trkpt>
      <trkpt lat="45.82825" lon="2.96106">
        <ele>994.8</ele>
        <time>2021-07-30T10:47:40.005Z</time>
      </trkpt>
      <trkpt lat="45.82799" lon="2.96125">
        <ele>993.5</ele>
        <time>2021-07-30T10:47:47.039Z</time>
      </trkpt>
      <trkpt lat="45.82776" lon="2.96136">
        <ele>993.5</ele>
        <time>2021-07-30T10:48:10.676Z</time>
      </trkpt>
      <trkpt lat="45.8274" lon="2.96158">
        <ele>992.3</ele>
        <time>2021-07-30T10:48:21.475Z</time>
      </trkpt>
      <trkpt lat="45.82718" lon="2.96169">
        <ele>990.7</ele>
        <time>2021-07-30T10:48:26.579Z</time>
      </trkpt>
      <trkpt lat="45.82705" lon="2.96174">
        <ele>990.1</ele>
        <time>2021-07-30T10:48:29.823Z</time>
      </trkpt>
      <trkpt lat="45.82698" lon="2.96175">
        <ele>990</ele>
        <time>2021-07-30T10:48:32.166Z</time>
      </trkpt>
      <trkpt lat="45.82684" lon="2.96175">
        <ele>989.9</ele>
        <time>2021-07-30T10:48:44.470Z</time>
      </trkpt>
      <trkpt lat="45.82654" lon="2.96173">
        <ele>989.7</ele>
        <time>2021-07-30T10:49:11.039Z</time>
      </trkpt>
      <trkpt lat="45.82636" lon="2.96174">
        <ele>988.9</ele>
        <time>2021-07-30T10:49:15.388Z</time>
      </trkpt>
      <trkpt lat="45.82625" lon="2.96177">
        <ele>988.2</ele>
        <time>2021-07-30T10:49:17.708Z</time>
      </trkpt>
      <trkpt lat="45.82614" lon="2.96182">
        <ele>987</ele>
        <time>2021-07-30T10:49:20.236Z</time>
      </trkpt>
      <trkpt lat="45.82604" lon="2.96187">
        <ele>985.9</ele>
        <time>2021-07-30T10:49:22.556Z</time>
      </trkpt>
      <trkpt lat="45.82578" lon="2.96208">
        <ele>982.2</ele>
        <time>2021-07-30T10:49:29.092Z</time>
      </trkpt>
      <trkpt lat="45.82563" lon="2.9622">
        <ele>980.6</ele>
        <time>2021-07-30T10:49:32.854Z</time>
      </trkpt>
      <trkpt lat="45.82522" lon="2.96249">
        <ele>976.1</ele>
        <time>2021-07-30T10:49:42.867Z</time>
      </trkpt>
      <trkpt lat="45.82504" lon="2.96264">
        <ele>976.3</ele>
        <time>2021-07-30T10:50:05.120Z</time>
      </trkpt>
      <trkpt lat="45.82477" lon="2.96292">
        <ele>977.9</ele>
        <time>2021-07-30T10:51:01.187Z</time>
      </trkpt>
      <trkpt lat="45.8246" lon="2.96308">
        <ele>979</ele>
        <time>2021-07-30T10:51:36.804Z</time>
      </trkpt>
      <trkpt lat="45.82453" lon="2.96313">
        <ele>979.5</ele>
        <time>2021-07-30T10:51:51.474Z</time>
      </trkpt>
      <trkpt lat="45.82445" lon="2.96316">
        <ele>980</ele>
        <time>2021-07-30T10:52:06.609Z</time>
      </trkpt>
      <trkpt lat="45.82453" lon="2.96313">
        <ele>979.5</ele>
        <time>2021-07-30T10:52:08.350Z</time>
      </trkpt>
      <trkpt lat="45.8246" lon="2.96308">
        <ele>979</ele>
        <time>2021-07-30T10:52:09.952Z</time>
      </trkpt>
      <trkpt lat="45.82477" lon="2.96292">
        <ele>977.9</ele>
        <time>2021-07-30T10:52:14.462Z</time>
      </trkpt>
      <trkpt lat="45.82474" lon="2.96274">
        <ele>977.4</ele>
        <time>2021-07-30T10:52:17.744Z</time>
      </trkpt>
      <trkpt lat="45.82473" lon="2.9626">
        <ele>977</ele>
        <time>2021-07-30T10:52:20.193Z</time>
      </trkpt>
      <trkpt lat="45.82475" lon="2.96246">
        <ele>977.3</ele>
        <time>2021-07-30T10:52:33.602Z</time>
      </trkpt>
      <trkpt lat="45.82476" lon="2.96231">
        <ele>979.5</ele>
        <time>2021-07-30T10:53:13.091Z</time>
      </trkpt>
      <trkpt lat="45.82476" lon="2.96219">
        <ele>981.4</ele>
        <time>2021-07-30T10:53:44.538Z</time>
      </trkpt>
      <trkpt lat="45.82475" lon="2.96206">
        <ele>983.4</ele>
        <time>2021-07-30T10:54:18.812Z</time>
      </trkpt>
      <trkpt lat="45.82474" lon="2.96198">
        <ele>984.6</ele>
        <time>2021-07-30T10:54:40.112Z</time>
      </trkpt>
      <trkpt lat="45.82475" lon="2.96181">
        <ele>987.3</ele>
        <time>2021-07-30T10:55:24.820Z</time>
      </trkpt>
      <trkpt lat="45.8248" lon="2.96163">
        <ele>990.5</ele>
        <time>2021-07-30T10:56:15.600Z</time>
      </trkpt>
      <trkpt lat="45.82454" lon="2.96137">
        <ele>993.4</ele>
        <time>2021-07-30T10:57:29.809Z</time>
      </trkpt>
      <trkpt lat="45.82446" lon="2.96139">
        <ele>992.7</ele>
        <time>2021-07-30T10:57:31.588Z</time>
      </trkpt>
      <trkpt lat="45.82407" lon="2.96094">
        <ele>996.4</ele>
        <time>2021-07-30T10:59:12.770Z</time>
      </trkpt>
      <trkpt lat="45.82391" lon="2.96076">
        <ele>996.5</ele>
        <time>2021-07-30T10:59:33.527Z</time>
      </trkpt>
      <trkpt lat="45.82383" lon="2.96043">
        <ele>1000.4</ele>
        <time>2021-07-30T11:01:05.091Z</time>
      </trkpt>
      <trkpt lat="45.82386" lon="2.96037">
        <ele>1001.8</ele>
        <time>2021-07-30T11:01:24.444Z</time>
      </trkpt>
      <trkpt lat="45.82393" lon="2.96024">
        <ele>1005.2</ele>
        <time>2021-07-30T11:02:07.497Z</time>
      </trkpt>
      <trkpt lat="45.82432" lon="2.96009">
        <ele>1013.4</ele>
        <time>2021-07-30T11:04:39.337Z</time>
      </trkpt>
      <trkpt lat="45.82437" lon="2.95991">
        <ele>1016.5</ele>
        <time>2021-07-30T11:05:30.117Z</time>
      </trkpt>
      <trkpt lat="45.82462" lon="2.95974">
        <ele>1022.2</ele>
        <time>2021-07-30T11:07:14.153Z</time>
      </trkpt>
      <trkpt lat="45.82489" lon="2.95914">
        <ele>1036.2</ele>
        <time>2021-07-30T11:10:21.323Z</time>
      </trkpt>
      <trkpt lat="45.82492" lon="2.95891">
        <ele>1041.3</ele>
        <time>2021-07-30T11:11:22.643Z</time>
      </trkpt>
      <trkpt lat="45.82502" lon="2.9586">
        <ele>1049.1</ele>
        <time>2021-07-30T11:12:52.163Z</time>
      </trkpt>
      <trkpt lat="45.82506" lon="2.95843">
        <ele>1052.5</ele>
        <time>2021-07-30T11:13:39.184Z</time>
      </trkpt>
      <trkpt lat="45.82512" lon="2.95838">
        <ele>1054.1</ele>
        <time>2021-07-30T11:14:05.276Z</time>
      </trkpt>
      <trkpt lat="45.82521" lon="2.9583">
        <ele>1056.3</ele>
        <time>2021-07-30T11:14:45.088Z</time>
      </trkpt>
      <trkpt lat="45.82555" lon="2.95799">
        <ele>1063.7</ele>
        <time>2021-07-30T11:17:16.574Z</time>
      </trkpt>
      <trkpt lat="45.82553" lon="2.95775">
        <ele>1067.5</ele>
        <time>2021-07-30T11:18:19.915Z</time>
      </trkpt>
      <trkpt lat="45.82544" lon="2.95762">
        <ele>1069.9</ele>
        <time>2021-07-30T11:19:07.937Z</time>
      </trkpt>
      <trkpt lat="45.82542" lon="2.95757">
        <ele>1070.7</ele>
        <time>2021-07-30T11:19:23.045Z</time>
      </trkpt>
      <trkpt lat="45.82536" lon="2.95715">
        <ele>1078</ele>
        <time>2021-07-30T11:21:15.397Z</time>
      </trkpt>
      <trkpt lat="45.82535" lon="2.95711">
        <ele>1078.8</ele>
        <time>2021-07-30T11:21:26.533Z</time>
      </trkpt>
      <trkpt lat="45.82529" lon="2.95707">
        <ele>1079.8</ele>
        <time>2021-07-30T11:21:51.413Z</time>
      </trkpt>
      <trkpt lat="45.82529" lon="2.95707">
        <ele>1079.9</ele>
        <time>2021-07-30T11:21:51.413Z</time>
      </trkpt>
      <trkpt lat="45.8252" lon="2.95696">
        <ele>1082.5</ele>
        <time>2021-07-30T11:22:35.870Z</time>
      </trkpt>
      <trkpt lat="45.82515" lon="2.95686">
        <ele>1084.8</ele>
        <time>2021-07-30T11:23:08.124Z</time>
      </trkpt>
      <trkpt lat="45.82511" lon="2.95678">
        <ele>1086.7</ele>
        <time>2021-07-30T11:23:33.927Z</time>
      </trkpt>
      <trkpt lat="45.82509" lon="2.9567">
        <ele>1088.4</ele>
        <time>2021-07-30T11:23:56.200Z</time>
      </trkpt>
      <trkpt lat="45.82508" lon="2.95663">
        <ele>1089.9</ele>
        <time>2021-07-30T11:24:14.925Z</time>
      </trkpt>
      <trkpt lat="45.82507" lon="2.95658">
        <ele>1090.7</ele>
        <time>2021-07-30T11:24:28.557Z</time>
      </trkpt>
      <trkpt lat="45.82505" lon="2.95654">
        <ele>1091.7</ele>
        <time>2021-07-30T11:24:41.458Z</time>
      </trkpt>
      <trkpt lat="45.82502" lon="2.95646">
        <ele>1093.5</ele>
        <time>2021-07-30T11:25:05.266Z</time>
      </trkpt>
      <trkpt lat="45.825" lon="2.95643">
        <ele>1094.3</ele>
        <time>2021-07-30T11:25:16.146Z</time>
      </trkpt>
      <trkpt lat="45.82497" lon="2.95637">
        <ele>1094.5</ele>
        <time>2021-07-30T11:25:23.937Z</time>
      </trkpt>
      <trkpt lat="45.82496" lon="2.95632">
        <ele>1095.2</ele>
        <time>2021-07-30T11:25:37.568Z</time>
      </trkpt>
      <trkpt lat="45.82495" lon="2.95625">
        <ele>1096.1</ele>
        <time>2021-07-30T11:25:56.294Z</time>
      </trkpt>
      <trkpt lat="45.82494" lon="2.95618">
        <ele>1097.2</ele>
        <time>2021-07-30T11:26:15.020Z</time>
      </trkpt>
      <trkpt lat="45.82493" lon="2.95612">
        <ele>1098.2</ele>
        <time>2021-07-30T11:26:31.187Z</time>
      </trkpt>
      <trkpt lat="45.82492" lon="2.95608">
        <ele>1098.7</ele>
        <time>2021-07-30T11:26:42.323Z</time>
      </trkpt>
      <trkpt lat="45.82491" lon="2.95603">
        <ele>1099.2</ele>
        <time>2021-07-30T11:26:55.955Z</time>
      </trkpt>
      <trkpt lat="45.82489" lon="2.95597">
        <ele>1099.7</ele>
        <time>2021-07-30T11:27:08.683Z</time>
      </trkpt>
      <trkpt lat="45.82488" lon="2.9559">
        <ele>1101</ele>
        <time>2021-07-30T11:27:27.409Z</time>
      </trkpt>
      <trkpt lat="45.82487" lon="2.95561">
        <ele>1104.2</ele>
        <time>2021-07-30T11:28:43.499Z</time>
      </trkpt>
      <trkpt lat="45.82487" lon="2.95553">
        <ele>1105</ele>
        <time>2021-07-30T11:29:04.463Z</time>
      </trkpt>
      <trkpt lat="45.82473" lon="2.95466">
        <ele>1110.6</ele>
        <time>2021-07-30T11:31:28.214Z</time>
      </trkpt>
      <trkpt lat="45.82471" lon="2.9545">
        <ele>1111.5</ele>
        <time>2021-07-30T11:31:52.143Z</time>
      </trkpt>
      <trkpt lat="45.82469" lon="2.95435">
        <ele>1112.6</ele>
        <time>2021-07-30T11:32:20.039Z</time>
      </trkpt>
      <trkpt lat="45.82469" lon="2.95415">
        <ele>1114</ele>
        <time>2021-07-30T11:32:55.531Z</time>
      </trkpt>
      <trkpt lat="45.82469" lon="2.95398">
        <ele>1114.1</ele>
        <time>2021-07-30T11:33:08.049Z</time>
      </trkpt>
      <trkpt lat="45.82458" lon="2.95384">
        <ele>1113.4</ele>
        <time>2021-07-30T11:33:11.498Z</time>
      </trkpt>
      <trkpt lat="45.82439" lon="2.95352">
        <ele>1113</ele>
        <time>2021-07-30T11:33:21.327Z</time>
      </trkpt>
      <trkpt lat="45.82424" lon="2.95332">
        <ele>1113.1</ele>
        <time>2021-07-30T11:33:42.225Z</time>
      </trkpt>
      <trkpt lat="45.82414" lon="2.95316">
        <ele>1111.4</ele>
        <time>2021-07-30T11:33:45.506Z</time>
      </trkpt>
      <trkpt lat="45.82407" lon="2.95301">
        <ele>1108.5</ele>
        <time>2021-07-30T11:33:48.262Z</time>
      </trkpt>
      <trkpt lat="45.82403" lon="2.95289">
        <ele>1106.8</ele>
        <time>2021-07-30T11:33:50.292Z</time>
      </trkpt>
      <trkpt lat="45.82399" lon="2.95275">
        <ele>1105.3</ele>
        <time>2021-07-30T11:33:52.602Z</time>
      </trkpt>
      <trkpt lat="45.82391" lon="2.95252">
        <ele>1102.8</ele>
        <time>2021-07-30T11:33:56.527Z</time>
      </trkpt>
      <trkpt lat="45.82388" lon="2.95235">
        <ele>1101.4</ele>
        <time>2021-07-30T11:33:59.204Z</time>
      </trkpt>
      <trkpt lat="45.82386" lon="2.95224">
        <ele>1100.5</ele>
        <time>2021-07-30T11:34:00.939Z</time>
      </trkpt>
      <trkpt lat="45.82384" lon="2.95209">
        <ele>1099.5</ele>
        <time>2021-07-30T11:34:03.271Z</time>
      </trkpt>
      <trkpt lat="45.82383" lon="2.95194">
        <ele>1098.8</ele>
        <time>2021-07-30T11:34:05.378Z</time>
      </trkpt>
      <trkpt lat="45.82384" lon="2.95149">
        <ele>1097</ele>
        <time>2021-07-30T11:34:12.152Z</time>
      </trkpt>
      <trkpt lat="45.82383" lon="2.95143">
        <ele>1096.5</ele>
        <time>2021-07-30T11:34:13.094Z</time>
      </trkpt>
      <trkpt lat="45.82378" lon="2.95123">
        <ele>1094.6</ele>
        <time>2021-07-30T11:34:16.338Z</time>
      </trkpt>
      <trkpt lat="45.82374" lon="2.95103">
        <ele>1092.8</ele>
        <time>2021-07-30T11:34:19.514Z</time>
      </trkpt>
      <trkpt lat="45.82373" lon="2.9508">
        <ele>1091.3</ele>
        <time>2021-07-30T11:34:23.033Z</time>
      </trkpt>
      <trkpt lat="45.82375" lon="2.95062">
        <ele>1090.3</ele>
        <time>2021-07-30T11:34:25.815Z</time>
      </trkpt>
      <trkpt lat="45.82379" lon="2.95045">
        <ele>1089.9</ele>
        <time>2021-07-30T11:34:29.219Z</time>
      </trkpt>
      <trkpt lat="45.82386" lon="2.95033">
        <ele>1090.4</ele>
        <time>2021-07-30T11:34:47.319Z</time>
      </trkpt>
      <trkpt lat="45.82393" lon="2.95026">
        <ele>1091.4</ele>
        <time>2021-07-30T11:35:13.308Z</time>
      </trkpt>
      <trkpt lat="45.82405" lon="2.95023">
        <ele>1093.7</ele>
        <time>2021-07-30T11:35:59.115Z</time>
      </trkpt>
      <trkpt lat="45.82403" lon="2.95015">
        <ele>1092.8</ele>
        <time>2021-07-30T11:36:00.412Z</time>
      </trkpt>
      <trkpt lat="45.82403" lon="2.94997">
        <ele>1091.3</ele>
        <time>2021-07-30T11:36:03.160Z</time>
      </trkpt>
      <trkpt lat="45.82397" lon="2.94983">
        <ele>1087.7</ele>
        <time>2021-07-30T11:36:05.669Z</time>
      </trkpt>
      <trkpt lat="45.82385" lon="2.94963">
        <ele>1081.3</ele>
        <time>2021-07-30T11:36:09.698Z</time>
      </trkpt>
      <trkpt lat="45.82367" lon="2.94947">
        <ele>1074.3</ele>
        <time>2021-07-30T11:36:14.337Z</time>
      </trkpt>
      <trkpt lat="45.82359" lon="2.94942">
        <ele>1071.5</ele>
        <time>2021-07-30T11:36:16.249Z</time>
      </trkpt>
      <trkpt lat="45.82367" lon="2.94947">
        <ele>1074.3</ele>
        <time>2021-07-30T11:36:49.063Z</time>
      </trkpt>
      <trkpt lat="45.82385" lon="2.94963">
        <ele>1081.3</ele>
        <time>2021-07-30T11:38:08.688Z</time>
      </trkpt>
      <trkpt lat="45.82397" lon="2.94983">
        <ele>1087.7</ele>
        <time>2021-07-30T11:39:17.851Z</time>
      </trkpt>
      <trkpt lat="45.82403" lon="2.94997">
        <ele>1091.3</ele>
        <time>2021-07-30T11:40:00.923Z</time>
      </trkpt>
      <trkpt lat="45.82403" lon="2.95015">
        <ele>1092.8</ele>
        <time>2021-07-30T11:40:40.226Z</time>
      </trkpt>
      <trkpt lat="45.82405" lon="2.95023">
        <ele>1093.7</ele>
        <time>2021-07-30T11:41:02.500Z</time>
      </trkpt>
      <trkpt lat="45.82407" lon="2.95027">
        <ele>1094.4</ele>
        <time>2021-07-30T11:41:15.401Z</time>
      </trkpt>
      <trkpt lat="45.82407" lon="2.95033">
        <ele>1095</ele>
        <time>2021-07-30T11:41:31.125Z</time>
      </trkpt>
      <trkpt lat="45.82411" lon="2.95051">
        <ele>1096.9</ele>
        <time>2021-07-30T11:42:20.636Z</time>
      </trkpt>
      <trkpt lat="45.82417" lon="2.9507">
        <ele>1099.2</ele>
        <time>2021-07-30T11:43:15.302Z</time>
      </trkpt>
      <trkpt lat="45.82423" lon="2.95082">
        <ele>1099.4</ele>
        <time>2021-07-30T11:43:27.509Z</time>
      </trkpt>
      <trkpt lat="45.8243" lon="2.95088">
        <ele>1099</ele>
        <time>2021-07-30T11:43:29.398Z</time>
      </trkpt>
      <trkpt lat="45.82438" lon="2.95093">
        <ele>1098.4</ele>
        <time>2021-07-30T11:43:31.309Z</time>
      </trkpt>
      <trkpt lat="45.8245" lon="2.95093">
        <ele>1097.3</ele>
        <time>2021-07-30T11:43:33.938Z</time>
      </trkpt>
      <trkpt lat="45.8246" lon="2.95096">
        <ele>1096.4</ele>
        <time>2021-07-30T11:43:36.176Z</time>
      </trkpt>
      <trkpt lat="45.82467" lon="2.95102">
        <ele>1095.8</ele>
        <time>2021-07-30T11:43:37.963Z</time>
      </trkpt>
      <trkpt lat="45.82471" lon="2.95112">
        <ele>1095.4</ele>
        <time>2021-07-30T11:43:39.812Z</time>
      </trkpt>
      <trkpt lat="45.82474" lon="2.95123">
        <ele>1094.9</ele>
        <time>2021-07-30T11:43:41.541Z</time>
      </trkpt>
      <trkpt lat="45.82478" lon="2.95127">
        <ele>1094.5</ele>
        <time>2021-07-30T11:43:42.609Z</time>
      </trkpt>
      <trkpt lat="45.82485" lon="2.95131">
        <ele>1093.6</ele>
        <time>2021-07-30T11:43:44.260Z</time>
      </trkpt>
      <trkpt lat="45.82492" lon="2.95133">
        <ele>1092.8</ele>
        <time>2021-07-30T11:43:45.824Z</time>
      </trkpt>
      <trkpt lat="45.82503" lon="2.95135">
        <ele>1091.8</ele>
        <time>2021-07-30T11:43:48.253Z</time>
      </trkpt>
      <trkpt lat="45.82507" lon="2.95134">
        <ele>1091.9</ele>
        <time>2021-07-30T11:43:53.365Z</time>
      </trkpt>
      <trkpt lat="45.82513" lon="2.95139">
        <ele>1091.7</ele>
        <time>2021-07-30T11:43:55.317Z</time>
      </trkpt>
      <trkpt lat="45.82518" lon="2.9514">
        <ele>1091.7</ele>
        <time>2021-07-30T11:44:00.239Z</time>
      </trkpt>
      <trkpt lat="45.8253" lon="2.95143">
        <ele>1091.5</ele>
        <time>2021-07-30T11:44:04.187Z</time>
      </trkpt>
      <trkpt lat="45.82538" lon="2.9515">
        <ele>1091.1</ele>
        <time>2021-07-30T11:44:06.485Z</time>
      </trkpt>
      <trkpt lat="45.82546" lon="2.95156">
        <ele>1090.6</ele>
        <time>2021-07-30T11:44:08.466Z</time>
      </trkpt>
      <trkpt lat="45.8256" lon="2.95158">
        <ele>1090.3</ele>
        <time>2021-07-30T11:44:12.768Z</time>
      </trkpt>
      <trkpt lat="45.82569" lon="2.9516">
        <ele>1090</ele>
        <time>2021-07-30T11:44:15.224Z</time>
      </trkpt>
      <trkpt lat="45.8258" lon="2.95165">
        <ele>1089.3</ele>
        <time>2021-07-30T11:44:17.650Z</time>
      </trkpt>
      <trkpt lat="45.82596" lon="2.9518">
        <ele>1088.2</ele>
        <time>2021-07-30T11:44:21.770Z</time>
      </trkpt>
      <trkpt lat="45.82604" lon="2.95196">
        <ele>1087.4</ele>
        <time>2021-07-30T11:44:24.710Z</time>
      </trkpt>
      <trkpt lat="45.82608" lon="2.95198">
        <ele>1087</ele>
        <time>2021-07-30T11:44:25.638Z</time>
      </trkpt>
      <trkpt lat="45.82623" lon="2.95197">
        <ele>1085.3</ele>
        <time>2021-07-30T11:44:28.928Z</time>
      </trkpt>
      <trkpt lat="45.82634" lon="2.95201">
        <ele>1083.9</ele>
        <time>2021-07-30T11:44:31.414Z</time>
      </trkpt>
      <trkpt lat="45.82653" lon="2.95217">
        <ele>1080.7</ele>
        <time>2021-07-30T11:44:36.240Z</time>
      </trkpt>
      <trkpt lat="45.8264" lon="2.95246">
        <ele>1080.9</ele>
        <time>2021-07-30T11:45:01.600Z</time>
      </trkpt>
      <trkpt lat="45.82653" lon="2.95217">
        <ele>1080.7</ele>
        <time>2021-07-30T11:45:10.246Z</time>
      </trkpt>
      <trkpt lat="45.82672" lon="2.95206">
        <ele>1079.2</ele>
        <time>2021-07-30T11:45:14.734Z</time>
      </trkpt>
      <trkpt lat="45.82701" lon="2.95195">
        <ele>1076.7</ele>
        <time>2021-07-30T11:45:21.306Z</time>
      </trkpt>
      <trkpt lat="45.82721" lon="2.95184">
        <ele>1074.1</ele>
        <time>2021-07-30T11:45:25.998Z</time>
      </trkpt>
      <trkpt lat="45.82744" lon="2.95163">
        <ele>1070.4</ele>
        <time>2021-07-30T11:45:31.970Z</time>
      </trkpt>
      <trkpt lat="45.82765" lon="2.95147">
        <ele>1068.6</ele>
        <time>2021-07-30T11:45:37.178Z</time>
      </trkpt>
      <trkpt lat="45.82779" lon="2.95138">
        <ele>1066.9</ele>
        <time>2021-07-30T11:45:40.539Z</time>
      </trkpt>
      <trkpt lat="45.82786" lon="2.95136">
        <ele>1065.7</ele>
        <time>2021-07-30T11:45:42.103Z</time>
      </trkpt>
      <trkpt lat="45.8282" lon="2.95128">
        <ele>1059.9</ele>
        <time>2021-07-30T11:45:49.650Z</time>
      </trkpt>
      <trkpt lat="45.82856" lon="2.95129">
        <ele>1053.5</ele>
        <time>2021-07-30T11:45:57.538Z</time>
      </trkpt>
      <trkpt lat="45.82868" lon="2.95128">
        <ele>1051.2</ele>
        <time>2021-07-30T11:46:00.172Z</time>
      </trkpt>
      <trkpt lat="45.82878" lon="2.95121">
        <ele>1049</ele>
        <time>2021-07-30T11:46:02.609Z</time>
      </trkpt>
      <trkpt lat="45.82878" lon="2.95121">
        <ele>1048.9</ele>
        <time>2021-07-30T11:46:02.609Z</time>
      </trkpt>
      <trkpt lat="45.8291" lon="2.95106">
        <ele>1041.9</ele>
        <time>2021-07-30T11:46:09.984Z</time>
      </trkpt>
      <trkpt lat="45.8292" lon="2.951">
        <ele>1039.7</ele>
        <time>2021-07-30T11:46:12.358Z</time>
      </trkpt>
      <trkpt lat="45.82933" lon="2.95088">
        <ele>1036.5</ele>
        <time>2021-07-30T11:46:15.745Z</time>
      </trkpt>
      <trkpt lat="45.82955" lon="2.95072">
        <ele>1031</ele>
        <time>2021-07-30T11:46:21.148Z</time>
      </trkpt>
      <trkpt lat="45.82964" lon="2.95068">
        <ele>1028.9</ele>
        <time>2021-07-30T11:46:23.212Z</time>
      </trkpt>
      <trkpt lat="45.82987" lon="2.95065">
        <ele>1024.4</ele>
        <time>2021-07-30T11:46:28.271Z</time>
      </trkpt>
      <trkpt lat="45.82985" lon="2.95062">
        <ele>1024.3</ele>
        <time>2021-07-30T11:46:29.038Z</time>
      </trkpt>
      <trkpt lat="45.82962" lon="2.95027">
        <ele>1025</ele>
        <time>2021-07-30T11:47:09.452Z</time>
      </trkpt>
      <trkpt lat="45.82954" lon="2.95015">
        <ele>1025.4</ele>
        <time>2021-07-30T11:47:25.961Z</time>
      </trkpt>
      <trkpt lat="45.82935" lon="2.94989">
        <ele>1026.3</ele>
        <time>2021-07-30T11:48:03.274Z</time>
      </trkpt>
      <trkpt lat="45.82917" lon="2.94956">
        <ele>1024.4</ele>
        <time>2021-07-30T11:48:09.206Z</time>
      </trkpt>
      <trkpt lat="45.82893" lon="2.94916">
        <ele>1022.4</ele>
        <time>2021-07-30T11:48:17.346Z</time>
      </trkpt>
      <trkpt lat="45.82867" lon="2.94867">
        <ele>1018.4</ele>
        <time>2021-07-30T11:48:26.748Z</time>
      </trkpt>
      <trkpt lat="45.82824" lon="2.94801">
        <ele>1013.4</ele>
        <time>2021-07-30T11:48:40.541Z</time>
      </trkpt>
      <trkpt lat="45.82797" lon="2.94767">
        <ele>1011</ele>
        <time>2021-07-30T11:48:48.410Z</time>
      </trkpt>
      <trkpt lat="45.82734" lon="2.94697">
        <ele>1008.5</ele>
        <time>2021-07-30T11:49:10.239Z</time>
      </trkpt>
      <trkpt lat="45.82719" lon="2.9467">
        <ele>1006.4</ele>
        <time>2021-07-30T11:49:15.510Z</time>
      </trkpt>
      <trkpt lat="45.82704" lon="2.94638">
        <ele>1003.9</ele>
        <time>2021-07-30T11:49:21.397Z</time>
      </trkpt>
      <trkpt lat="45.82689" lon="2.94617">
        <ele>1002.3</ele>
        <time>2021-07-30T11:49:25.988Z</time>
      </trkpt>
      <trkpt lat="45.82675" lon="2.94606">
        <ele>1001.8</ele>
        <time>2021-07-30T11:49:30.363Z</time>
      </trkpt>
      <trkpt lat="45.82636" lon="2.94562">
        <ele>997.3</ele>
        <time>2021-07-30T11:49:41.231Z</time>
      </trkpt>
      <trkpt lat="45.82626" lon="2.9455">
        <ele>996.1</ele>
        <time>2021-07-30T11:49:44.087Z</time>
      </trkpt>
      <trkpt lat="45.82608" lon="2.94532">
        <ele>994.3</ele>
        <time>2021-07-30T11:49:48.893Z</time>
      </trkpt>
      <trkpt lat="45.8256" lon="2.94479">
        <ele>989.6</ele>
        <time>2021-07-30T11:50:02.161Z</time>
      </trkpt>
      <trkpt lat="45.82555" lon="2.94474">
        <ele>989.3</ele>
        <time>2021-07-30T11:50:03.570Z</time>
      </trkpt>
      <trkpt lat="45.82553" lon="2.94471">
        <ele>989.1</ele>
        <time>2021-07-30T11:50:04.204Z</time>
      </trkpt>
      <trkpt lat="45.8255" lon="2.94462">
        <ele>988.6</ele>
        <time>2021-07-30T11:50:05.727Z</time>
      </trkpt>
      <trkpt lat="45.82562" lon="2.94458">
        <ele>988.3</ele>
        <time>2021-07-30T11:50:09.367Z</time>
      </trkpt>
      <trkpt lat="45.82576" lon="2.94455">
        <ele>987.8</ele>
        <time>2021-07-30T11:50:13.093Z</time>
      </trkpt>
      <trkpt lat="45.82578" lon="2.94454">
        <ele>987.8</ele>
        <time>2021-07-30T11:50:15.158Z</time>
      </trkpt>
      <trkpt lat="45.82595" lon="2.94449">
        <ele>986.8</ele>
        <time>2021-07-30T11:50:18.897Z</time>
      </trkpt>
      <trkpt lat="45.82615" lon="2.94446">
        <ele>985.7</ele>
        <time>2021-07-30T11:50:23.335Z</time>
      </trkpt>
      <trkpt lat="45.82639" lon="2.94443">
        <ele>984.4</ele>
        <time>2021-07-30T11:50:28.685Z</time>
      </trkpt>
      <trkpt lat="45.82659" lon="2.94442">
        <ele>983.4</ele>
        <time>2021-07-30T11:50:33.283Z</time>
      </trkpt>
      <trkpt lat="45.82672" lon="2.94443">
        <ele>983.2</ele>
        <time>2021-07-30T11:50:37.558Z</time>
      </trkpt>
      <trkpt lat="45.82678" lon="2.94443">
        <ele>983.3</ele>
        <time>2021-07-30T11:50:44.462Z</time>
      </trkpt>
      <trkpt lat="45.82703" lon="2.94441">
        <ele>983.4</ele>
        <time>2021-07-30T11:51:09.801Z</time>
      </trkpt>
      <trkpt lat="45.8272" lon="2.94438">
        <ele>983.3</ele>
        <time>2021-07-30T11:51:25.129Z</time>
      </trkpt>
      <trkpt lat="45.82776" lon="2.94411">
        <ele>980.8</ele>
        <time>2021-07-30T11:51:39.669Z</time>
      </trkpt>
      <trkpt lat="45.82801" lon="2.94398">
        <ele>979.3</ele>
        <time>2021-07-30T11:51:45.455Z</time>
      </trkpt>
      <trkpt lat="45.82817" lon="2.94387">
        <ele>978.2</ele>
        <time>2021-07-30T11:51:49.146Z</time>
      </trkpt>
      <trkpt lat="45.82819" lon="2.94385">
        <ele>978</ele>
        <time>2021-07-30T11:51:49.680Z</time>
      </trkpt>
      <trkpt lat="45.8283" lon="2.94384">
        <ele>977.5</ele>
        <time>2021-07-30T11:51:52.318Z</time>
      </trkpt>
      <trkpt lat="45.82842" lon="2.94384">
        <ele>976.7</ele>
        <time>2021-07-30T11:51:54.726Z</time>
      </trkpt>
      <trkpt lat="45.82846" lon="2.94385">
        <ele>976.4</ele>
        <time>2021-07-30T11:51:55.616Z</time>
      </trkpt>
      <trkpt lat="45.82856" lon="2.94385">
        <ele>975.6</ele>
        <time>2021-07-30T11:51:57.806Z</time>
      </trkpt>
      <trkpt lat="45.82882" lon="2.94378">
        <ele>973.3</ele>
        <time>2021-07-30T11:52:03.601Z</time>
      </trkpt>
      <trkpt lat="45.82904" lon="2.94367">
        <ele>971.4</ele>
        <time>2021-07-30T11:52:08.705Z</time>
      </trkpt>
      <trkpt lat="45.82914" lon="2.94362">
        <ele>970.5</ele>
        <time>2021-07-30T11:52:11.025Z</time>
      </trkpt>
      <trkpt lat="45.82943" lon="2.94343">
        <ele>968.7</ele>
        <time>2021-07-30T11:52:17.959Z</time>
      </trkpt>
      <trkpt lat="45.82979" lon="2.94315">
        <ele>965.7</ele>
        <time>2021-07-30T11:52:26.929Z</time>
      </trkpt>
      <trkpt lat="45.83019" lon="2.94285">
        <ele>962.7</ele>
        <time>2021-07-30T11:52:36.001Z</time>
      </trkpt>
      <trkpt lat="45.83038" lon="2.9427">
        <ele>961.7</ele>
        <time>2021-07-30T11:52:41.156Z</time>
      </trkpt>
      <trkpt lat="45.83049" lon="2.94262">
        <ele>961.2</ele>
        <time>2021-07-30T11:52:44.241Z</time>
      </trkpt>
      <trkpt lat="45.83058" lon="2.94253">
        <ele>960.7</ele>
        <time>2021-07-30T11:52:46.862Z</time>
      </trkpt>
      <trkpt lat="45.83156" lon="2.94118">
        <ele>954.5</ele>
        <time>2021-07-30T11:53:19.291Z</time>
      </trkpt>
      <trkpt lat="45.83172" lon="2.94097">
        <ele>953.3</ele>
        <time>2021-07-30T11:53:24.051Z</time>
      </trkpt>
      <trkpt lat="45.83221" lon="2.94039">
        <ele>951.2</ele>
        <time>2021-07-30T11:53:41.154Z</time>
      </trkpt>
      <trkpt lat="45.83237" lon="2.9402">
        <ele>951</ele>
        <time>2021-07-30T11:53:48.495Z</time>
      </trkpt>
      <trkpt lat="45.8325" lon="2.94006">
        <ele>950.9</ele>
        <time>2021-07-30T11:54:02.976Z</time>
      </trkpt>
      <trkpt lat="45.83264" lon="2.93991">
        <ele>950.5</ele>
        <time>2021-07-30T11:54:08.223Z</time>
      </trkpt>
      <trkpt lat="45.83283" lon="2.93972">
        <ele>949.6</ele>
        <time>2021-07-30T11:54:14.111Z</time>
      </trkpt>
      <trkpt lat="45.83295" lon="2.9396">
        <ele>948.8</ele>
        <time>2021-07-30T11:54:17.339Z</time>
      </trkpt>
      <trkpt lat="45.83314" lon="2.93941">
        <ele>947.6</ele>
        <time>2021-07-30T11:54:22.576Z</time>
      </trkpt>
      <trkpt lat="45.83335" lon="2.93924">
        <ele>946.1</ele>
        <time>2021-07-30T11:54:27.584Z</time>
      </trkpt>
      <trkpt lat="45.83344" lon="2.93918">
        <ele>945.4</ele>
        <time>2021-07-30T11:54:29.758Z</time>
      </trkpt>
      <trkpt lat="45.83352" lon="2.93916">
        <ele>944.9</ele>
        <time>2021-07-30T11:54:31.453Z</time>
      </trkpt>
      <trkpt lat="45.8336" lon="2.93917">
        <ele>944.4</ele>
        <time>2021-07-30T11:54:33.120Z</time>
      </trkpt>
      <trkpt lat="45.8338" lon="2.93921">
        <ele>943.3</ele>
        <time>2021-07-30T11:54:37.585Z</time>
      </trkpt>
      <trkpt lat="45.83396" lon="2.93922">
        <ele>942.3</ele>
        <time>2021-07-30T11:54:40.906Z</time>
      </trkpt>
      <trkpt lat="45.83405" lon="2.93921">
        <ele>941.7</ele>
        <time>2021-07-30T11:54:42.720Z</time>
      </trkpt>
      <trkpt lat="45.83413" lon="2.93919">
        <ele>941.2</ele>
        <time>2021-07-30T11:54:44.415Z</time>
      </trkpt>
      <trkpt lat="45.83421" lon="2.93915">
        <ele>940.6</ele>
        <time>2021-07-30T11:54:46.271Z</time>
      </trkpt>
      <trkpt lat="45.83433" lon="2.93906">
        <ele>939.7</ele>
        <time>2021-07-30T11:54:48.993Z</time>
      </trkpt>
      <trkpt lat="45.8345" lon="2.93888">
        <ele>938.4</ele>
        <time>2021-07-30T11:54:53.404Z</time>
      </trkpt>
      <trkpt lat="45.83462" lon="2.93872">
        <ele>937.5</ele>
        <time>2021-07-30T11:54:57.011Z</time>
      </trkpt>
      <trkpt lat="45.83472" lon="2.93855">
        <ele>936.8</ele>
        <time>2021-07-30T11:55:00.728Z</time>
      </trkpt>
      <trkpt lat="45.83484" lon="2.93822">
        <ele>936</ele>
        <time>2021-07-30T11:55:07.873Z</time>
      </trkpt>
      <trkpt lat="45.83511" lon="2.93764">
        <ele>934.8</ele>
        <time>2021-07-30T11:55:22.178Z</time>
      </trkpt>
      <trkpt lat="45.83522" lon="2.93746">
        <ele>934.4</ele>
        <time>2021-07-30T11:55:27.127Z</time>
      </trkpt>
      <trkpt lat="45.83529" lon="2.93727">
        <ele>933.9</ele>
        <time>2021-07-30T11:55:31.146Z</time>
      </trkpt>
      <trkpt lat="45.83555" lon="2.93669">
        <ele>932.1</ele>
        <time>2021-07-30T11:55:43.531Z</time>
      </trkpt>
      <trkpt lat="45.8357" lon="2.93624">
        <ele>930.5</ele>
        <time>2021-07-30T11:55:51.799Z</time>
      </trkpt>
      <trkpt lat="45.836" lon="2.9354">
        <ele>926.8</ele>
        <time>2021-07-30T11:56:06.128Z</time>
      </trkpt>
      <trkpt lat="45.8361" lon="2.93517">
        <ele>925.8</ele>
        <time>2021-07-30T11:56:10.359Z</time>
      </trkpt>
      <trkpt lat="45.83615" lon="2.93508">
        <ele>925.4</ele>
        <time>2021-07-30T11:56:12.203Z</time>
      </trkpt>
      <trkpt lat="45.83622" lon="2.93498">
        <ele>924.9</ele>
        <time>2021-07-30T11:56:14.460Z</time>
      </trkpt>
      <trkpt lat="45.83632" lon="2.93485">
        <ele>924.3</ele>
        <time>2021-07-30T11:56:17.715Z</time>
      </trkpt>
      <trkpt lat="45.83649" lon="2.93462">
        <ele>923.3</ele>
        <time>2021-07-30T11:56:23.439Z</time>
      </trkpt>
      <trkpt lat="45.83663" lon="2.9345">
        <ele>922.6</ele>
        <time>2021-07-30T11:56:27.429Z</time>
      </trkpt>
      <trkpt lat="45.83686" lon="2.93431">
        <ele>920.2</ele>
        <time>2021-07-30T11:56:33.243Z</time>
      </trkpt>
      <trkpt lat="45.83693" lon="2.93423">
        <ele>919.2</ele>
        <time>2021-07-30T11:56:35.203Z</time>
      </trkpt>
      <trkpt lat="45.83702" lon="2.93402">
        <ele>917</ele>
        <time>2021-07-30T11:56:38.966Z</time>
      </trkpt>
      <trkpt lat="45.8371" lon="2.93377">
        <ele>914.8</ele>
        <time>2021-07-30T11:56:43.165Z</time>
      </trkpt>
      <trkpt lat="45.83716" lon="2.93365">
        <ele>913.6</ele>
        <time>2021-07-30T11:56:45.419Z</time>
      </trkpt>
      <trkpt lat="45.8375" lon="2.9332">
        <ele>909.7</ele>
        <time>2021-07-30T11:56:55.551Z</time>
      </trkpt>
      <trkpt lat="45.83755" lon="2.93311">
        <ele>909.6</ele>
        <time>2021-07-30T11:56:58.283Z</time>
      </trkpt>
      <trkpt lat="45.83767" lon="2.93279">
        <ele>909.2</ele>
        <time>2021-07-30T11:57:06.552Z</time>
      </trkpt>
      <trkpt lat="45.83771" lon="2.93265">
        <ele>909.1</ele>
        <time>2021-07-30T11:57:10.286Z</time>
      </trkpt>
      <trkpt lat="45.83788" lon="2.93166">
        <ele>908.3</ele>
        <time>2021-07-30T11:57:34.864Z</time>
      </trkpt>
      <trkpt lat="45.838" lon="2.93131">
        <ele>908.2</ele>
        <time>2021-07-30T11:57:59.947Z</time>
      </trkpt>
      <trkpt lat="45.83806" lon="2.9312">
        <ele>908.3</ele>
        <time>2021-07-30T11:58:10.422Z</time>
      </trkpt>
      <trkpt lat="45.83811" lon="2.9311">
        <ele>908.3</ele>
        <time>2021-07-30T11:58:18.783Z</time>
      </trkpt>
      <trkpt lat="45.83811" lon="2.93107">
        <ele>908.3</ele>
        <time>2021-07-30T11:58:20.820Z</time>
      </trkpt>
      <trkpt lat="45.83812" lon="2.93105">
        <ele>908.3</ele>
        <time>2021-07-30T11:58:22.493Z</time>
      </trkpt>
      <trkpt lat="45.83823" lon="2.93092">
        <ele>908.6</ele>
        <time>2021-07-30T11:58:39.704Z</time>
      </trkpt>
      <trkpt lat="45.83836" lon="2.93083">
        <ele>908.9</ele>
        <time>2021-07-30T11:58:57.085Z</time>
      </trkpt>
      <trkpt lat="45.8385" lon="2.93074">
        <ele>908.2</ele>
        <time>2021-07-30T11:59:00.747Z</time>
      </trkpt>
      <trkpt lat="45.83865" lon="2.93065">
        <ele>907.3</ele>
        <time>2021-07-30T11:59:04.316Z</time>
      </trkpt>
      <trkpt lat="45.83889" lon="2.93056">
        <ele>905.8</ele>
        <time>2021-07-30T11:59:09.540Z</time>
      </trkpt>
      <trkpt lat="45.83914" lon="2.93046">
        <ele>904</ele>
        <time>2021-07-30T11:59:15.225Z</time>
      </trkpt>
      <trkpt lat="45.83931" lon="2.93039">
        <ele>903</ele>
        <time>2021-07-30T11:59:19.069Z</time>
      </trkpt>
      <trkpt lat="45.83958" lon="2.93026">
        <ele>901.7</ele>
        <time>2021-07-30T11:59:25.868Z</time>
      </trkpt>
      <trkpt lat="45.83985" lon="2.93018">
        <ele>901</ele>
        <time>2021-07-30T11:59:33.920Z</time>
      </trkpt>
      <trkpt lat="45.84033" lon="2.93006">
        <ele>899.1</ele>
        <time>2021-07-30T11:59:46.293Z</time>
      </trkpt>
      <trkpt lat="45.8405" lon="2.93">
        <ele>898.2</ele>
        <time>2021-07-30T11:59:50.266Z</time>
      </trkpt>
      <trkpt lat="45.84057" lon="2.92997">
        <ele>897.8</ele>
        <time>2021-07-30T11:59:51.877Z</time>
      </trkpt>
      <trkpt lat="45.84069" lon="2.92992">
        <ele>897</ele>
        <time>2021-07-30T11:59:54.436Z</time>
      </trkpt>
      <trkpt lat="45.84091" lon="2.9298">
        <ele>895.9</ele>
        <time>2021-07-30T12:00:00.000Z</time>
      </trkpt>
    </trkseg>
  </trk>
</gpx>